Time;durP1;ratioP1;P1;durP2;ratioP2;P2;SDS_P1;SDS_P2;PMS_P1;PMS_P2;Temp;Humidity;BMP_temperature;BMP_pressure;BME280_temperature;BME280_humidity;BME280_pressure;Samples;Min_cycle;Max_cycle;Signal;HPM_P1;HPM_P2
2023/03/19 00:02:32;;;;;;;4.55;2.60;;;;;;;10.33;100.00;98038.31;15274036;19;20832;-76
2023/03/19 00:08:03;;;;;;;3.17;2.20;;;;;;;10.36;100.00;98031.72;15279129;19;20030;-77
2023/03/19 00:13:31;;;;;;;3.43;2.23;;;;;;;10.40;100.00;98031.28;15287406;19;20006;-76
2023/03/19 00:18:56;;;;;;;3.30;2.20;;;;;;;10.45;100.00;98026.22;15347529;19;20002;-78
2023/03/19 00:24:21;;;;;;;4.13;2.45;;;;;;;10.47;100.00;98026.03;15288829;19;20046;-78
2023/03/19 00:29:48;;;;;;;4.30;2.35;;;;;;;10.47;100.00;98024.19;15274416;19;20021;-75
2023/03/19 00:35:14;;;;;;;3.33;2.40;;;;;;;10.50;100.00;98030.25;15270903;19;20014;-75
2023/03/19 00:40:38;;;;;;;4.35;2.30;;;;;;;10.50;100.00;98028.38;15270230;19;20360;-76
2023/03/19 00:46:06;;;;;;;4.43;2.60;;;;;;;10.52;100.00;98031.75;15287594;19;20322;-75
2023/03/19 00:51:33;;;;;;;5.10;2.50;;;;;;;10.50;100.00;98038.34;15287011;19;20014;-76
2023/03/19 00:56:58;;;;;;;4.05;2.35;;;;;;;10.50;100.00;98022.16;15288371;19;20018;-76
2023/03/19 01:02:25;;;;;;;3.97;2.70;;;;;;;10.53;100.00;98022.66;15281515;19;20029;-77
2023/03/19 01:07:56;;;;;;;4.38;2.65;;;;;;;10.52;100.00;98022.84;15273577;19;20064;-76
2023/03/19 01:13:21;;;;;;;3.17;2.20;;;;;;;10.47;100.00;98024.19;15283884;19;20033;-76
2023/03/19 01:18:49;;;;;;;3.30;2.60;;;;;;;10.43;100.00;98028.22;15284459;19;20081;-76
2023/03/19 01:24:15;;;;;;;3.67;2.30;;;;;;;10.44;100.00;98026.38;15281782;19;20022;-78
2023/03/19 01:29:48;;;;;;;3.92;2.50;;;;;;;10.40;100.00;98020.50;15284221;19;20006;-75
2023/03/19 01:35:33;;;;;;;4.82;2.40;;;;;;;10.37;100.00;98022.63;15289999;19;20023;-78
2023/03/19 01:41:00;;;;;;;5.50;2.90;;;;;;;10.34;100.00;98018.44;15278865;19;20014;-77
2023/03/19 01:46:30;;;;;;;4.85;2.78;;;;;;;10.29;100.00;98015.44;15284420;19;20033;-77
2023/03/19 01:52:03;;;;;;;4.88;3.05;;;;;;;10.29;100.00;98015.44;15280291;19;20870;-77
2023/03/19 01:57:48;;;;;;;5.35;3.20;;;;;;;10.31;100.00;98003.47;15282119;19;20015;-78
2023/03/19 02:03:28;;;;;;;4.90;2.90;;;;;;;10.23;100.00;98016.94;15278692;19;20015;-77
2023/03/19 02:09:05;;;;;;;6.47;2.78;;;;;;;10.25;100.00;98016.78;15281204;19;20026;-77
2023/03/19 02:14:30;;;;;;;7.57;3.35;;;;;;;10.22;100.00;98014.41;15272909;19;20026;-76
2023/03/19 02:20:00;;;;;;;4.07;2.60;;;;;;;10.15;100.00;98017.81;15280868;19;20007;-78
2023/03/19 02:25:35;;;;;;;3.20;2.67;;;;;;;10.09;100.00;98029.22;15280332;19;20019;-76
2023/03/19 02:31:06;;;;;;;4.38;2.83;;;;;;;10.02;100.00;98015.59;15281139;19;20047;-76
2023/03/19 02:36:32;;;;;;;4.78;3.03;;;;;;;9.99;100.00;98015.09;15283021;19;20085;-77
2023/03/19 02:41:58;;;;;;;3.80;2.88;;;;;;;9.94;100.00;98020.13;15279452;19;20018;-76
2023/03/19 02:47:27;;;;;;;4.85;2.85;;;;;;;9.81;100.00;98018.78;15277355;19;20017;-76
2023/03/19 02:52:53;;;;;;;7.78;2.75;;;;;;;9.66;100.00;98021.28;15277506;19;20901;-77
2023/03/19 02:58:18;;;;;;;4.25;2.95;;;;;;;9.65;100.00;98019.59;15283537;19;20015;-78
2023/03/19 03:03:46;;;;;;;3.45;2.80;;;;;;;9.56;100.00;98020.59;15280585;19;20041;-76
2023/03/19 03:09:11;;;;;;;6.75;3.15;;;;;;;9.54;100.00;98027.97;15285422;19;20034;-76
2023/03/19 03:14:39;;;;;;;4.97;3.00;;;;;;;9.55;100.00;98029.66;15283957;19;20017;-77
2023/03/19 03:20:06;;;;;;;4.63;3.08;;;;;;;9.47;100.00;98033.16;15285522;19;20101;-77
2023/03/19 03:25:32;;;;;;;5.05;3.33;;;;;;;9.44;100.00;98029.97;15282900;19;20014;-76
2023/03/19 03:30:56;;;;;;;5.40;3.00;;;;;;;9.35;100.00;98034.50;15282122;19;20022;-77
2023/03/19 03:36:26;;;;;;;5.00;3.15;;;;;;;9.29;100.00;98035.13;15285145;19;20016;-77
2023/03/19 03:41:50;;;;;;;4.03;3.00;;;;;;;9.21;100.00;98028.72;15284636;19;20558;-76
2023/03/19 03:47:16;;;;;;;4.50;3.08;;;;;;;9.16;100.00;98033.72;15282988;19;20014;-78
2023/03/19 03:52:56;;;;;;;5.45;3.05;;;;;;;9.07;100.00;98021.28;15316587;19;20007;-74
2023/03/19 03:58:21;;;;;;;4.55;3.08;;;;;;;9.00;100.00;98028.28;15329181;19;20018;-77
2023/03/19 04:03:46;;;;;;;4.93;3.00;;;;;;;8.89;100.00;98029.41;15273354;19;20025;-75
2023/03/19 04:09:14;;;;;;;4.85;3.20;;;;;;;8.83;100.00;98036.28;15274002;19;20102;-76
2023/03/19 04:14:39;;;;;;;5.03;3.10;;;;;;;8.77;100.00;98044.97;15267810;19;20010;-74
2023/03/19 04:20:05;;;;;;;4.03;3.00;;;;;;;8.69;100.00;98047.59;15277641;19;20113;-77
2023/03/19 04:25:32;;;;;;;4.90;2.95;;;;;;;8.60;100.00;98042.19;15286676;19;20014;-78
2023/03/19 04:31:01;;;;;;;5.93;3.10;;;;;;;8.53;100.00;98051.84;15285129;19;20522;-79
2023/03/19 04:36:27;;;;;;;4.85;3.22;;;;;;;8.42;100.00;98050.25;15288428;19;20018;-77
2023/03/19 04:42:03;;;;;;;4.78;2.92;;;;;;;8.36;100.00;98061.59;15284387;19;20046;-77
2023/03/19 04:47:33;;;;;;;5.03;3.17;;;;;;;8.26;100.00;98067.09;15284169;19;20028;-78
2023/03/19 04:52:59;;;;;;;4.65;2.92;;;;;;;8.14;100.00;98076.38;15278222;19;20398;-77
2023/03/19 04:58:27;;;;;;;4.65;3.20;;;;;;;8.07;100.00;98086.88;15285353;19;20488;-76
2023/03/19 05:03:52;;;;;;;4.30;2.90;;;;;;;8.01;100.00;98069.56;15279264;19;20117;-76
2023/03/19 05:09:19;;;;;;;4.25;3.20;;;;;;;7.96;100.00;98071.00;15282675;19;20011;-74
2023/03/19 05:14:46;;;;;;;4.85;3.08;;;;;;;7.91;100.00;98082.19;15278934;19;20017;-78
2023/03/19 05:20:27;;;;;;;4.20;2.97;;;;;;;7.89;100.00;98086.00;15288057;19;20014;-78
2023/03/19 05:26:00;;;;;;;5.40;3.30;;;;;;;7.86;100.00;98088.03;15287475;19;20030;-77
2023/03/19 05:32:04;;;;;;;4.05;3.10;;;;;;;7.88;100.00;98090.53;15288225;19;20022;-78
2023/03/19 05:37:28;;;;;;;4.47;3.20;;;;;;;7.91;100.00;98100.13;15290625;19;20014;-78
2023/03/19 05:42:53;;;;;;;4.43;3.08;;;;;;;7.93;100.00;98098.13;15288847;19;20018;-77
2023/03/19 05:48:21;;;;;;;4.72;3.00;;;;;;;7.94;100.00;98110.53;15282481;19;20025;-78
2023/03/19 05:53:48;;;;;;;4.75;3.17;;;;;;;7.97;100.00;98110.25;15285467;19;20055;-77
2023/03/19 05:59:33;;;;;;;6.03;3.30;;;;;;;8.00;100.00;98107.25;15282950;19;20509;-77
2023/03/19 06:05:20;;;;;;;4.70;3.00;;;;;;;8.05;100.00;98114.88;15289164;19;20015;-78
2023/03/19 06:11:00;;;;;;;4.90;3.40;;;;;;;8.06;100.00;98125.44;15288883;19;20019;-78
2023/03/19 06:16:33;;;;;;;5.07;3.30;;;;;;;8.16;100.00;98130.72;15288376;19;20038;-77
2023/03/19 06:22:00;;;;;;;7.13;3.50;;;;;;;8.23;100.00;98130.97;15288751;19;20017;-79
2023/03/19 06:27:27;;;;;;;5.57;3.10;;;;;;;8.33;100.00;98137.09;15284471;19;20661;-79
2023/03/19 06:33:16;;;;;;;4.13;3.10;;;;;;;8.48;100.00;98137.41;15284477;19;20018;-78
2023/03/19 06:38:43;;;;;;;6.45;3.33;;;;;;;8.61;100.00;98137.88;15284209;19;20027;-77
2023/03/19 06:44:08;;;;;;;4.05;3.15;;;;;;;8.76;100.00;98126.56;15279924;19;20011;-78
2023/03/19 06:49:32;;;;;;;4.63;3.15;;;;;;;8.90;100.00;98134.03;15286377;19;20034;-78
2023/03/19 06:55:01;;;;;;;5.68;3.10;;;;;;;9.09;100.00;98116.00;15300401;19;20014;-77
2023/03/19 07:00:27;;;;;;;4.88;3.20;;;;;;;9.24;100.00;98135.91;15274746;19;20020;-75
2023/03/19 07:05:53;;;;;;;5.13;3.20;;;;;;;9.40;100.00;98128.94;15277930;19;20025;-77
2023/03/19 07:11:21;;;;;;;3.60;2.80;;;;;;;9.52;100.00;98124.94;15281153;19;20026;-79
2023/03/19 07:16:46;;;;;;;4.40;2.95;;;;;;;9.66;100.00;98133.41;15289017;19;20547;-78
2023/03/19 07:22:11;;;;;;;7.32;4.88;;;;;;;9.71;100.00;98152.56;15337461;19;20014;-77
2023/03/19 07:27:39;;;;;;;5.18;3.05;;;;;;;9.78;100.00;98153.63;15312748;19;20021;-78
2023/03/19 07:33:03;;;;;;;4.90;3.10;;;;;;;9.77;100.00;98168.09;15267338;19;20006;-77
2023/03/19 07:38:28;;;;;;;4.88;3.10;;;;;;;9.89;100.00;98168.63;15277731;19;20011;-79
2023/03/19 07:43:55;;;;;;;5.72;4.10;;;;;;;9.93;100.00;98174.53;15269039;19;20026;-78
2023/03/19 07:49:20;;;;;;;6.20;3.45;;;;;;;10.04;100.00;98168.84;15272014;19;20043;-78
2023/03/19 07:54:45;;;;;;;6.43;3.05;;;;;;;10.15;100.00;98176.63;15271490;19;20013;-78
2023/03/19 08:00:18;;;;;;;4.70;3.35;;;;;;;10.24;100.00;98169.38;15273380;19;20037;-78
2023/03/19 08:05:43;;;;;;;5.38;3.30;;;;;;;10.22;100.00;98167.88;15269413;19;20022;-77
2023/03/19 08:11:08;;;;;;;5.53;3.40;;;;;;;10.23;100.00;98151.53;15272406;19;20026;-77
2023/03/19 08:16:36;;;;;;;4.97;3.20;;;;;;;10.24;100.00;98158.59;15274591;19;20017;-77
2023/03/19 08:22:01;;;;;;;5.40;2.90;;;;;;;10.37;100.00;98158.13;15275753;19;20023;-78
2023/03/19 08:27:26;;;;;;;4.38;2.90;;;;;;;10.51;100.00;98174.69;15284113;19;20460;-77
2023/03/19 08:33:24;;;;;;;3.85;2.63;;;;;;;10.70;100.00;98177.03;15276392;19;20532;-77
2023/03/19 08:39:30;;;;;;;3.75;2.63;;;;;;;10.90;100.00;98176.69;15269057;19;20011;-80
2023/03/19 08:44:55;;;;;;;4.88;2.80;;;;;;;11.10;100.00;98187.97;15266519;19;20006;-76
2023/03/19 08:50:21;;;;;;;2.67;2.22;;;;;;;11.26;100.00;98184.41;15242990;19;20362;-79
2023/03/19 08:55:53;;;;;;;3.92;2.70;;;;;;;11.43;100.00;98184.38;15280803;19;20013;-78
2023/03/19 09:01:19;;;;;;;4.68;2.60;;;;;;;11.54;100.00;98192.09;15281394;19;20014;-77
2023/03/19 09:06:44;;;;;;;3.95;2.53;;;;;;;11.66;100.00;98190.72;15288700;19;20021;-77
2023/03/19 09:12:11;;;;;;;3.40;2.20;;;;;;;11.79;100.00;98189.31;15288971;19;20066;-79
2023/03/19 09:17:37;;;;;;;5.13;2.38;;;;;;;11.93;100.00;98191.28;15291897;19;20382;-78
2023/03/19 09:23:02;;;;;;;2.55;2.20;;;;;;;12.08;100.00;98194.09;15297664;19;20027;-79
2023/03/19 09:28:32;;;;;;;4.32;2.20;;;;;;;12.25;100.00;98194.00;15301999;19;20038;-80
2023/03/19 09:33:58;;;;;;;3.80;2.30;;;;;;;12.37;100.00;98197.97;15299542;19;20013;-80
2023/03/19 09:39:22;;;;;;;3.88;2.35;;;;;;;12.48;100.00;98208.38;15315969;19;20018;-79
2023/03/19 09:44:50;;;;;;;3.50;2.13;;;;;;;12.62;100.00;98209.47;15296988;19;20009;-77
2023/03/19 09:50:21;;;;;;;4.35;2.13;;;;;;;12.74;100.00;98209.06;15297110;19;20027;-77
2023/03/19 09:55:50;;;;;;;2.17;1.48;;;;;;;12.81;100.00;98218.13;15294238;19;20737;-78
2023/03/19 10:01:30;;;;;;;2.75;1.00;;;;;;;12.95;100.00;98211.06;15295423;19;20014;-81
2023/03/19 10:07:02;;;;;;;2.25;0.80;;;;;;;12.97;100.00;98229.84;15293197;19;21137;-79
2023/03/19 10:12:40;;;;;;;2.50;0.77;;;;;;;12.70;100.00;98223.94;15301472;19;20017;-79
2023/03/19 10:18:13;;;;;;;1.77;0.95;;;;;;;12.40;100.00;98234.63;15290029;19;20018;-80
2023/03/19 10:23:45;;;;;;;2.92;1.10;;;;;;;12.22;100.00;98243.81;15293354;19;20408;-80
2023/03/19 10:29:12;;;;;;;2.83;1.10;;;;;;;12.01;100.00;98255.22;15317982;19;20018;-78
2023/03/19 10:34:41;;;;;;;1.55;0.90;;;;;;;11.81;100.00;98260.16;15303686;19;20010;-78
2023/03/19 10:40:19;;;;;;;1.65;1.00;;;;;;;11.62;100.00;98267.63;15308056;19;20014;-78
2023/03/19 10:45:47;;;;;;;1.25;1.02;;;;;;;11.53;100.00;98276.75;15310210;19;20015;-79
2023/03/19 10:51:18;;;;;;;2.10;1.10;;;;;;;11.43;100.00;98276.91;15329058;19;20019;-79
2023/03/19 10:56:45;;;;;;;1.70;0.90;;;;;;;11.39;100.00;98271.03;15333659;19;20015;-79
2023/03/19 11:02:18;;;;;;;1.88;1.20;;;;;;;11.33;100.00;98289.75;15276084;19;20040;-78
2023/03/19 11:07:57;;;;;;;2.85;1.15;;;;;;;11.15;100.00;98295.31;15279967;19;20015;-78
2023/03/19 11:13:27;;;;;;;3.97;1.48;;;;;;;11.10;100.00;98296.66;15284231;19;20017;-78
2023/03/19 11:18:56;;;;;;;2.30;1.10;;;;;;;11.09;100.00;98307.59;15271832;19;20007;-79
2023/03/19 11:24:25;;;;;;;4.25;1.65;;;;;;;11.11;100.00;98308.28;15282185;19;20006;-77
2023/03/19 11:29:51;;;;;;;2.05;1.10;;;;;;;11.09;100.00;98297.69;15279787;19;20357;-77
2023/03/19 11:35:24;;;;;;;3.50;1.17;;;;;;;11.07;100.00;98313.16;15288399;19;20016;-78
2023/03/19 11:41:05;;;;;;;1.95;1.10;;;;;;;10.85;100.00;98308.44;15292304;19;20017;-78
2023/03/19 11:46:45;;;;;;;2.13;1.00;;;;;;;10.81;100.00;98312.44;15295435;19;20002;-78
2023/03/19 11:52:20;;;;;;;2.33;1.20;;;;;;;10.72;100.00;98314.28;15290304;19;20014;-80
2023/03/19 11:58:06;;;;;;;1.88;1.00;;;;;;;10.61;100.00;98320.84;15291184;19;20085;-80
2023/03/19 12:04:09;;;;;;;2.33;1.10;;;;;;;10.60;100.00;98329.91;15286146;19;20026;-79
2023/03/19 12:09:42;;;;;;;2.13;1.15;;;;;;;10.57;100.00;98330.25;15287604;19;20110;-78
2023/03/19 12:15:21;;;;;;;2.08;1.13;;;;;;;10.59;100.00;98339.84;15286330;19;20014;-79
2023/03/19 12:20:58;;;;;;;2.13;1.02;;;;;;;10.68;100.00;98329.94;15276586;19;20438;-77
2023/03/19 12:26:32;;;;;;;1.15;0.80;;;;;;;10.76;100.00;98329.13;15281987;19;20034;-78
2023/03/19 12:32:17;;;;;;;1.25;0.88;;;;;;;10.82;100.00;98325.75;15283731;19;20010;-78
2023/03/19 12:37:48;;;;;;;1.13;0.85;;;;;;;10.95;100.00;98322.59;15275021;19;20484;-76
2023/03/19 12:43:20;;;;;;;1.88;1.20;;;;;;;10.99;100.00;98318.56;15284775;19;20033;-76
2023/03/19 12:48:56;;;;;;;1.95;1.23;;;;;;;11.05;100.00;98323.28;15283370;19;20011;-76
2023/03/19 12:54:27;;;;;;;2.33;1.30;;;;;;;11.14;100.00;98317.88;15286518;19;20011;-77
2023/03/19 13:00:02;;;;;;;2.60;1.10;;;;;;;11.20;100.00;98309.97;15288005;19;20652;-77
2023/03/19 13:05:40;;;;;;;2.72;1.00;;;;;;;11.34;100.00;98313.88;15290532;19;20020;-77
2023/03/19 13:11:08;;;;;;;1.45;1.00;;;;;;;11.54;100.00;98313.50;15311452;19;20022;-77
2023/03/19 13:16:41;;;;;;;2.10;0.93;;;;;;;11.70;100.00;98299.16;15311665;19;20082;-79
2023/03/19 13:22:18;;;;;;;2.05;0.90;;;;;;;11.90;100.00;98301.44;15298887;19;20492;-77
2023/03/19 13:27:44;;;;;;;3.67;1.00;;;;;;;12.07;100.00;98296.88;15297038;19;20028;-76
2023/03/19 13:33:13;;;;;;;2.03;0.80;;;;;;;12.10;100.00;98281.19;15277098;19;20013;-87
2023/03/19 13:38:48;;;;;;;2.10;1.10;;;;;;;12.10;100.00;98261.44;15298036;19;20021;-88
2023/03/19 13:44:41;;;;;;;1.73;1.10;;;;;;;12.07;100.00;98259.94;15295535;19;20015;-87
2023/03/19 13:50:32;;;;;;;1.42;0.88;;;;;;;11.97;100.00;98248.47;15316187;19;20037;-88
2023/03/19 13:56:02;;;;;;;1.83;1.00;;;;;;;11.97;100.00;98254.69;15318153;19;20349;-87
2023/03/19 14:01:47;;;;;;;2.65;1.13;;;;;;;11.98;100.00;98253.72;15275614;19;20050;-50
2023/03/19 14:07:20;;;;;;;1.70;1.02;;;;;;;12.11;100.00;98249.63;15269718;19;20018;-47
2023/03/19 14:12:49;;;;;;;0.88;0.80;;;;;;;12.12;100.00;98251.28;15273717;19;20024;-48
2023/03/19 14:18:20;;;;;;;1.52;1.08;;;;;;;12.26;100.00;98245.16;15274068;19;20019;-47
2023/03/19 14:23:56;;;;;;;2.00;1.10;;;;;;;12.37;100.00;98246.59;15270477;19;20358;-46
2023/03/19 14:29:25;;;;;;;1.88;1.05;;;;;;;12.42;100.00;98235.25;15270824;19;20266;-47
2023/03/19 14:34:52;;;;;;;1.10;0.90;;;;;;;12.47;100.00;98230.19;15262568;19;20493;-48
2023/03/19 14:40:20;;;;;;;1.33;1.00;;;;;;;12.63;100.00;98235.50;15272555;19;20077;-48
2023/03/19 14:45:58;;;;;;;2.13;0.98;;;;;;;12.65;100.00;98219.09;15268350;19;20007;-49
2023/03/19 14:51:44;;;;;;;1.23;0.80;;;;;;;12.91;100.00;98224.13;15268933;19;20011;-49
2023/03/19 14:57:17;;;;;;;1.83;0.80;;;;;;;13.34;100.00;98225.47;15270876;19;20017;-49
2023/03/19 15:02:48;;;;;;;1.05;0.70;;;;;;;13.67;100.00;98222.44;15268487;19;20014;-47
2023/03/19 15:08:15;;;;;;;0.73;0.70;;;;;;;14.00;100.00;98216.63;15268837;19;20672;-48
2023/03/19 15:13:50;;;;;;;1.70;0.80;;;;;;;14.24;100.00;98209.22;15273311;19;20025;-48
2023/03/19 15:19:26;;;;;;;0.70;0.60;;;;;;;14.31;100.00;98202.84;15272357;19;21942;-50
2023/03/19 15:24:51;;;;;;;1.40;0.73;;;;;;;14.53;100.00;98196.59;15270755;19;20134;-47
2023/03/19 15:30:26;;;;;;;0.93;0.63;;;;;;;14.67;100.00;98197.59;15274055;19;20696;-47
2023/03/19 15:36:17;;;;;;;1.23;0.80;;;;;;;15.00;100.00;98194.38;15271910;19;20831;-47
2023/03/19 15:41:46;;;;;;;1.77;0.90;;;;;;;14.90;100.00;98197.41;15268052;19;20125;-47
2023/03/19 15:47:13;;;;;;;1.17;0.57;;;;;;;15.06;100.00;98201.72;15270846;19;20014;-51
2023/03/19 15:52:44;;;;;;;1.27;0.60;;;;;;;15.19;100.00;98196.41;15272456;19;20019;-52
2023/03/19 15:58:15;;;;;;;0.93;0.70;;;;;;;15.48;100.00;98199.97;15268390;19;20612;-50
2023/03/19 16:03:49;;;;;;;1.55;0.70;;;;;;;15.29;100.00;98193.38;15266031;19;20019;-49
2023/03/19 16:09:25;;;;;;;3.38;2.00;;;;;;;15.40;100.00;98194.72;15262470;19;20197;-50
2023/03/19 16:14:52;;;;;;;0.90;0.80;;;;;;;15.61;100.00;98209.25;15275124;19;20240;-51
2023/03/19 16:20:17;;;;;;;1.73;1.00;;;;;;;15.81;100.00;98203.94;15287299;19;20044;-50
2023/03/19 16:25:45;;;;;;;2.55;0.70;;;;;;;15.73;100.00;98213.09;15281648;19;20020;-48
2023/03/19 16:31:21;;;;;;;1.27;0.80;;;;;;;15.44;100.00;98214.16;15287774;19;20041;-50
2023/03/19 16:36:46;;;;;;;0.90;0.63;;;;;;;15.29;100.00;98217.78;15284455;19;20395;-50
2023/03/19 16:42:35;;;;;;;1.55;0.80;;;;;;;14.95;100.00;98227.53;15280926;19;20430;-48
2023/03/19 16:48:02;;;;;;;1.42;0.85;;;;;;;14.82;100.00;98217.38;15284770;19;20025;-47
2023/03/19 16:53:31;;;;;;;0.88;0.70;;;;;;;14.61;100.00;98226.31;15284973;19;20021;-49
2023/03/19 16:58:59;;;;;;;0.93;0.68;;;;;;;14.40;100.00;98233.41;15285372;19;20017;-47
2023/03/19 17:04:30;;;;;;;1.95;0.88;;;;;;;14.14;100.00;98242.00;15279993;19;20606;-47
2023/03/19 17:09:54;;;;;;;1.35;0.90;;;;;;;13.92;100.00;98238.41;15285294;19;20017;-48
2023/03/19 17:15:30;;;;;;;1.45;0.90;;;;;;;13.71;100.00;98254.38;15274727;19;20010;-47
2023/03/19 17:20:58;;;;;;;2.47;0.70;;;;;;;13.52;100.00;98260.34;15284778;19;20548;-49
2023/03/19 17:26:27;;;;;;;1.45;0.77;;;;;;;13.29;100.00;98265.75;15272521;19;20017;-48
2023/03/19 17:31:57;;;;;;;1.67;0.82;;;;;;;12.95;100.00;98284.94;15279814;19;20034;-46
2023/03/19 17:37:23;;;;;;;2.22;0.85;;;;;;;12.50;100.00;98294.69;15282448;19;20399;-48
2023/03/19 17:42:49;;;;;;;1.30;0.82;;;;;;;12.29;100.00;98308.78;15279940;19;20022;-47
2023/03/19 17:48:25;;;;;;;1.95;0.90;;;;;;;12.17;100.00;98302.94;15275906;19;20377;-45
2023/03/19 17:53:53;;;;;;;1.98;1.40;;;;;;;12.07;100.00;98299.56;15280232;19;20022;-46
2023/03/19 17:59:19;;;;;;;1.27;1.00;;;;;;;11.93;100.00;98304.66;15281082;19;20101;-47
2023/03/19 18:04:47;;;;;;;1.50;1.20;;;;;;;11.78;100.00;98306.38;15274736;19;20011;-48
2023/03/19 18:10:13;;;;;;;1.48;1.10;;;;;;;11.75;100.00;98304.03;15279570;19;20031;-48
2023/03/19 18:15:40;;;;;;;2.00;1.20;;;;;;;11.72;100.00;98297.94;15276955;19;20006;-48
2023/03/19 18:21:08;;;;;;;1.98;1.20;;;;;;;11.68;100.00;98302.03;15273481;19;20015;-49
2023/03/19 18:26:32;;;;;;;1.83;1.42;;;;;;;11.60;100.00;98288.53;15277880;19;20006;-47
2023/03/19 18:31:58;;;;;;;1.70;1.60;;;;;;;11.54;100.00;98300.00;15276306;19;20017;-48
2023/03/19 18:37:25;;;;;;;1.70;1.60;;;;;;;11.45;100.00;98298.34;15270035;19;20089;-48
2023/03/19 18:42:51;;;;;;;1.30;1.20;;;;;;;11.43;100.00;98303.06;15275115;19;20018;-46
2023/03/19 18:48:22;;;;;;;2.25;1.40;;;;;;;11.36;100.00;98305.59;15274526;19;20360;-46
2023/03/19 18:53:51;;;;;;;3.70;1.67;;;;;;;11.28;100.00;98322.59;15269481;19;20026;-44
2023/03/19 18:59:25;;;;;;;2.55;1.80;;;;;;;11.12;100.00;98318.06;15271132;19;20010;-45
2023/03/19 19:04:56;;;;;;;2.75;1.30;;;;;;;11.02;100.00;98326.28;15269578;19;20372;-47
2023/03/19 19:10:23;;;;;;;1.47;1.00;;;;;;;10.92;100.00;98326.47;15272352;19;20050;-45
2023/03/19 19:15:48;;;;;;;1.50;1.10;;;;;;;10.90;100.00;98346.50;15274338;19;20035;-44
2023/03/19 19:21:12;;;;;;;2.53;1.60;;;;;;;10.85;100.00;98352.38;15272827;19;20026;-45
2023/03/19 19:26:40;;;;;;;2.22;1.40;;;;;;;10.87;100.00;98353.06;15263321;19;20014;-45
2023/03/19 19:32:06;;;;;;;2.28;1.55;;;;;;;10.82;100.00;98358.09;15271627;19;20015;-45
2023/03/19 19:37:32;;;;;;;1.65;1.10;;;;;;;10.81;100.00;98363.66;15277812;19;20015;-48
2023/03/19 19:43:00;;;;;;;1.98;1.20;;;;;;;10.75;100.00;98357.06;15281845;19;20006;-46
2023/03/19 19:48:27;;;;;;;2.20;1.50;;;;;;;10.78;100.00;98362.13;15273211;19;20697;-45
2023/03/19 19:53:53;;;;;;;1.67;1.58;;;;;;;10.78;100.00;98364.84;15272113;19;20018;-45
2023/03/19 19:59:23;;;;;;;1.58;1.30;;;;;;;10.73;100.00;98368.03;15267018;19;20014;-46
2023/03/19 20:04:54;;;;;;;1.30;1.20;;;;;;;10.71;100.00;98374.56;15270106;19;20019;-46
2023/03/19 20:10:21;;;;;;;2.63;2.35;;;;;;;10.65;100.00;98376.06;15269723;19;20086;-48
2023/03/19 20:15:49;;;;;;;1.20;1.00;;;;;;;10.61;100.00;98374.72;15269580;19;20040;-50
2023/03/19 20:21:15;;;;;;;1.35;1.00;;;;;;;10.60;100.00;98381.09;15271210;19;20496;-49
2023/03/19 20:26:40;;;;;;;1.63;1.40;;;;;;;10.55;100.00;98375.34;15265847;19;20025;-48
2023/03/19 20:32:25;;;;;;;1.67;0.90;;;;;;;10.50;100.00;98375.00;15268090;19;20057;-49
2023/03/19 20:37:50;;;;;;;1.08;0.70;;;;;;;10.51;100.00;98379.41;14737053;19;10000192;-46
2023/03/19 20:43:25;;;;;;;1.23;0.70;;;;;;;10.53;100.00;98382.75;15268229;19;20014;-47
2023/03/19 20:48:53;;;;;;;1.35;1.00;;;;;;;10.52;100.00;98381.09;15270096;19;20014;-46
2023/03/19 20:54:19;;;;;;;2.28;1.20;;;;;;;10.42;100.00;98373.94;15262539;19;20029;-46
2023/03/19 20:59:45;;;;;;;0.90;0.90;;;;;;;10.30;100.00;98384.16;15268034;19;20018;-49
2023/03/19 21:05:14;;;;;;;1.10;0.90;;;;;;;10.24;100.00;98394.72;15278809;19;20486;-47
2023/03/19 21:10:41;;;;;;;1.02;0.90;;;;;;;10.13;100.00;98382.34;15283461;19;20474;-49
2023/03/19 21:16:06;;;;;;;1.25;0.93;;;;;;;10.02;100.00;98391.56;15285392;19;20086;-47
2023/03/19 21:21:37;;;;;;;1.67;1.35;;;;;;;10.00;100.00;98393.56;15283964;19;20021;-45
2023/03/19 21:27:02;;;;;;;2.33;1.10;;;;;;;9.87;100.00;98399.38;15277085;19;20015;-44
2023/03/19 21:32:28;;;;;;;1.40;1.02;;;;;;;9.79;100.00;98402.84;15276779;19;20011;-45
2023/03/19 21:37:55;;;;;;;1.35;1.10;;;;;;;9.76;100.00;98403.16;15282880;19;20019;-44
2023/03/19 21:43:26;;;;;;;1.38;0.90;;;;;;;9.79;100.00;98408.22;15281781;19;20014;-44
2023/03/19 21:48:51;;;;;;;1.60;0.90;;;;;;;9.71;100.00;98400.94;15274089;19;20041;-44
2023/03/19 21:54:19;;;;;;;1.10;0.90;;;;;;;9.68;100.00;98409.31;15274749;19;20025;-45
2023/03/19 21:59:46;;;;;;;1.00;0.90;;;;;;;9.64;100.00;98421.38;15278657;19;20018;-45
2023/03/19 22:05:31;;;;;;;1.20;0.93;;;;;;;9.64;100.00;98421.38;15273648;19;20043;-44
2023/03/19 22:11:01;;;;;;;1.33;0.90;;;;;;;9.63;100.00;98419.69;15281486;19;20086;-45
2023/03/19 22:16:29;;;;;;;0.80;0.67;;;;;;;9.55;100.00;98412.41;15280514;19;20090;-44
2023/03/19 22:21:54;;;;;;;1.98;0.90;;;;;;;9.52;100.00;98406.50;15278723;19;20018;-44
2023/03/19 22:27:25;;;;;;;0.88;0.70;;;;;;;9.48;100.00;98414.00;15275927;19;20019;-44
2023/03/19 22:32:50;;;;;;;3.83;1.00;;;;;;;9.42;100.00;98422.69;15275400;19;20021;-45
2023/03/19 22:38:14;;;;;;;1.70;0.90;;;;;;;9.45;100.00;98416.16;15274342;19;20010;-46
2023/03/19 22:43:41;;;;;;;3.05;1.02;;;;;;;9.44;100.00;98425.22;15277176;19;20053;-46
2023/03/19 22:49:07;;;;;;;1.00;0.90;;;;;;;9.43;100.00;98426.22;15275712;19;20050;-47
2023/03/19 22:54:32;;;;;;;1.13;1.00;;;;;;;9.43;100.00;98435.16;15275904;19;20018;-44
2023/03/19 23:00:00;;;;;;;2.45;1.00;;;;;;;9.43;100.00;98431.59;15279313;19;20018;-46
2023/03/19 23:05:31;;;;;;;1.42;0.90;;;;;;;9.49;100.00;98431.00;15275887;19;20017;-47
2023/03/19 23:10:57;;;;;;;1.13;0.90;;;;;;;9.50;100.00;98430.84;15278340;19;20014;-46
2023/03/19 23:16:26;;;;;;;1.10;1.00;;;;;;;9.55;100.00;98423.16;15278536;19;20494;-44
2023/03/19 23:21:51;;;;;;;1.20;1.00;;;;;;;9.55;100.00;98430.38;15273142;19;20011;-44
2023/03/19 23:27:25;;;;;;;1.75;0.90;;;;;;;9.60;100.00;98421.84;15271860;19;20086;-44
2023/03/19 23:32:52;;;;;;;1.25;0.90;;;;;;;9.58;100.00;98416.63;15272749;19;20021;-45
2023/03/19 23:38:17;;;;;;;1.20;1.00;;;;;;;9.61;100.00;98420.84;15270107;19;20028;-46
2023/03/19 23:43:42;;;;;;;2.72;1.10;;;;;;;9.63;100.00;98413.47;15269945;19;20018;-44
2023/03/19 23:49:14;;;;;;;1.13;0.90;;;;;;;9.63;100.00;98414.31;15268681;19;20014;-45
2023/03/19 23:54:40;;;;;;;1.67;1.02;;;;;;;9.60;100.00;98425.38;15270823;19;20578;-46
